sensor_id;sensor_type;location;lat;lon;timestamp;temperature;humidity
15991;DHT22;8100;50.994;4.538;2022-08-19T00:02:00;18.20;99.90
15991;DHT22;8100;50.994;4.538;2022-08-19T00:04:49;18.20;99.90
15991;DHT22;8100;50.994;4.538;2022-08-19T00:07:36;18.20;99.90
15991;DHT22;8100;50.994;4.538;2022-08-19T00:10:24;18.10;99.90
15991;DHT22;8100;50.994;4.538;2022-08-19T00:13:11;18.10;99.90
15991;DHT22;8100;50.994;4.538;2022-08-19T00:15:52;18.20;99.90
15991;DHT22;8100;50.994;4.538;2022-08-19T00:18:38;18.20;99.90
15991;DHT22;8100;50.994;4.538;2022-08-19T00:21:27;18.10;99.90
15991;DHT22;8100;50.994;4.538;2022-08-19T00:24:15;18.20;99.90
15991;DHT22;8100;50.994;4.538;2022-08-19T00:27:00;18.20;99.90
15991;DHT22;8100;50.994;4.538;2022-08-19T00:29:46;18.20;99.90
15991;DHT22;8100;50.994;4.538;2022-08-19T00:32:32;18.20;99.90
15991;DHT22;8100;50.994;4.538;2022-08-19T00:35:20;18.20;99.90
15991;DHT22;8100;50.994;4.538;2022-08-19T00:38:08;18.10;99.90
15991;DHT22;8100;50.994;4.538;2022-08-19T00:40:55;18.10;99.90
15991;DHT22;8100;50.994;4.538;2022-08-19T00:43:42;18.10;99.90
15991;DHT22;8100;50.994;4.538;2022-08-19T00:46:28;18.10;99.90
15991;DHT22;8100;50.994;4.538;2022-08-19T00:49:17;18.00;99.90
15991;DHT22;8100;50.994;4.538;2022-08-19T00:52:17;18.00;99.90
15991;DHT22;8100;50.994;4.538;2022-08-19T00:55:08;18.00;99.90
15991;DHT22;8100;50.994;4.538;2022-08-19T00:57:59;17.90;99.90
15991;DHT22;8100;50.994;4.538;2022-08-19T01:00:48;18.00;99.90
15991;DHT22;8100;50.994;4.538;2022-08-19T01:03:35;18.00;99.90
15991;DHT22;8100;50.994;4.538;2022-08-19T01:06:08;17.90;99.90
15991;DHT22;8100;50.994;4.538;2022-08-19T01:08:55;18.00;99.90
15991;DHT22;8100;50.994;4.538;2022-08-19T01:11:44;17.90;99.90
15991;DHT22;8100;50.994;4.538;2022-08-19T01:14:32;17.90;99.90
15991;DHT22;8100;50.994;4.538;2022-08-19T01:17:20;17.80;99.90
15991;DHT22;8100;50.994;4.538;2022-08-19T01:20:12;17.90;99.90
15991;DHT22;8100;50.994;4.538;2022-08-19T01:23:02;17.80;99.90
15991;DHT22;8100;50.994;4.538;2022-08-19T01:25:52;17.80;99.90
15991;DHT22;8100;50.994;4.538;2022-08-19T01:28:41;17.70;99.90
15991;DHT22;8100;50.994;4.538;2022-08-19T01:31:29;17.80;99.90
15991;DHT22;8100;50.994;4.538;2022-08-19T01:34:15;17.70;99.90
15991;DHT22;8100;50.994;4.538;2022-08-19T01:37:07;17.60;99.90
15991;DHT22;8100;50.994;4.538;2022-08-19T01:39:58;17.80;99.90
15991;DHT22;8100;50.994;4.538;2022-08-19T01:42:45;17.70;99.90
15991;DHT22;8100;50.994;4.538;2022-08-19T01:45:33;17.70;99.90
15991;DHT22;8100;50.994;4.538;2022-08-19T01:48:21;17.60;99.90
15991;DHT22;8100;50.994;4.538;2022-08-19T01:51:10;17.60;99.90
15991;DHT22;8100;50.994;4.538;2022-08-19T01:53:57;17.60;99.90
15991;DHT22;8100;50.994;4.538;2022-08-19T01:56:46;17.60;99.90
15991;DHT22;8100;50.994;4.538;2022-08-19T01:59:32;17.60;99.90
15991;DHT22;8100;50.994;4.538;2022-08-19T02:02:19;17.60;99.90
15991;DHT22;8100;50.994;4.538;2022-08-19T02:05:05;17.60;99.90
15991;DHT22;8100;50.994;4.538;2022-08-19T02:07:53;17.50;99.90
15991;DHT22;8100;50.994;4.538;2022-08-19T02:10:43;17.50;99.90
15991;DHT22;8100;50.994;4.538;2022-08-19T02:13:32;17.40;99.90
15991;DHT22;8100;50.994;4.538;2022-08-19T02:16:18;17.50;99.90
15991;DHT22;8100;50.994;4.538;2022-08-19T02:19:06;17.50;99.90
15991;DHT22;8100;50.994;4.538;2022-08-19T02:21:54;17.40;99.90
15991;DHT22;8100;50.994;4.538;2022-08-19T02:24:41;17.30;99.90
15991;DHT22;8100;50.994;4.538;2022-08-19T02:27:11;17.30;99.90
15991;DHT22;8100;50.994;4.538;2022-08-19T02:29:59;17.30;99.90
15991;DHT22;8100;50.994;4.538;2022-08-19T02:32:46;17.30;99.90
15991;DHT22;8100;50.994;4.538;2022-08-19T02:35:32;17.30;99.90
15991;DHT22;8100;50.994;4.538;2022-08-19T02:38:19;17.20;99.90
15991;DHT22;8100;50.994;4.538;2022-08-19T02:41:14;17.20;99.90
15991;DHT22;8100;50.994;4.538;2022-08-19T02:44:02;17.20;99.90
15991;DHT22;8100;50.994;4.538;2022-08-19T02:46:51;17.30;99.90
15991;DHT22;8100;50.994;4.538;2022-08-19T02:49:28;17.20;99.90
15991;DHT22;8100;50.994;4.538;2022-08-19T02:52:13;17.20;99.90
15991;DHT22;8100;50.994;4.538;2022-08-19T02:55:00;17.10;99.90
15991;DHT22;8100;50.994;4.538;2022-08-19T02:57:29;17.10;99.90
15991;DHT22;8100;50.994;4.538;2022-08-19T03:00:16;17.20;99.90
15991;DHT22;8100;50.994;4.538;2022-08-19T03:03:04;17.10;99.90
15991;DHT22;8100;50.994;4.538;2022-08-19T03:05:51;17.00;99.90
15991;DHT22;8100;50.994;4.538;2022-08-19T03:08:49;16.90;99.90
15991;DHT22;8100;50.994;4.538;2022-08-19T03:11:35;17.00;99.90
15991;DHT22;8100;50.994;4.538;2022-08-19T03:14:22;17.00;99.90
15991;DHT22;8100;50.994;4.538;2022-08-19T03:17:09;16.90;99.90
15991;DHT22;8100;50.994;4.538;2022-08-19T03:19:57;16.80;99.90
15991;DHT22;8100;50.994;4.538;2022-08-19T03:22:44;16.80;99.90
15991;DHT22;8100;50.994;4.538;2022-08-19T03:25:30;16.80;99.90
15991;DHT22;8100;50.994;4.538;2022-08-19T03:28:17;16.70;99.90
15991;DHT22;8100;50.994;4.538;2022-08-19T03:31:07;16.70;99.90
15991;DHT22;8100;50.994;4.538;2022-08-19T03:33:55;16.50;99.90
15991;DHT22;8100;50.994;4.538;2022-08-19T03:36:43;16.50;99.90
15991;DHT22;8100;50.994;4.538;2022-08-19T03:39:31;16.60;99.90
15991;DHT22;8100;50.994;4.538;2022-08-19T03:42:18;16.60;99.90
15991;DHT22;8100;50.994;4.538;2022-08-19T03:45:06;16.40;99.90
15991;DHT22;8100;50.994;4.538;2022-08-19T03:47:36;16.50;99.90
15991;DHT22;8100;50.994;4.538;2022-08-19T03:50:22;16.50;99.90
15991;DHT22;8100;50.994;4.538;2022-08-19T03:53:11;16.40;99.90
15991;DHT22;8100;50.994;4.538;2022-08-19T03:55:57;16.40;99.90
15991;DHT22;8100;50.994;4.538;2022-08-19T03:58:46;16.50;99.90
15991;DHT22;8100;50.994;4.538;2022-08-19T04:01:34;16.50;99.90
15991;DHT22;8100;50.994;4.538;2022-08-19T04:04:20;16.40;99.90
15991;DHT22;8100;50.994;4.538;2022-08-19T04:07:09;16.50;99.90
15991;DHT22;8100;50.994;4.538;2022-08-19T04:09:58;16.40;99.90
15991;DHT22;8100;50.994;4.538;2022-08-19T04:12:44;16.40;99.90
15991;DHT22;8100;50.994;4.538;2022-08-19T04:15:32;16.50;99.90
15991;DHT22;8100;50.994;4.538;2022-08-19T04:18:14;16.40;99.90
15991;DHT22;8100;50.994;4.538;2022-08-19T04:21:00;16.40;99.90
15991;DHT22;8100;50.994;4.538;2022-08-19T04:23:46;16.50;99.90
15991;DHT22;8100;50.994;4.538;2022-08-19T04:26:36;16.30;99.90
15991;DHT22;8100;50.994;4.538;2022-08-19T04:29:05;16.50;99.90
15991;DHT22;8100;50.994;4.538;2022-08-19T04:31:54;16.50;99.90
15991;DHT22;8100;50.994;4.538;2022-08-19T04:34:42;16.50;99.90
15991;DHT22;8100;50.994;4.538;2022-08-19T04:37:27;16.40;99.90
15991;DHT22;8100;50.994;4.538;2022-08-19T04:40:19;16.30;99.90
15991;DHT22;8100;50.994;4.538;2022-08-19T04:43:25;16.40;99.90
15991;DHT22;8100;50.994;4.538;2022-08-19T04:45:53;16.40;99.90
15991;DHT22;8100;50.994;4.538;2022-08-19T04:48:39;16.30;99.90
15991;DHT22;8100;50.994;4.538;2022-08-19T04:51:26;16.40;99.90
15991;DHT22;8100;50.994;4.538;2022-08-19T04:54:17;16.30;99.90
15991;DHT22;8100;50.994;4.538;2022-08-19T04:57:06;16.40;99.90
15991;DHT22;8100;50.994;4.538;2022-08-19T04:59:55;16.20;99.90
15991;DHT22;8100;50.994;4.538;2022-08-19T05:02:43;16.20;99.90
15991;DHT22;8100;50.994;4.538;2022-08-19T05:05:30;16.30;99.90
15991;DHT22;8100;50.994;4.538;2022-08-19T05:08:20;16.20;99.90
15991;DHT22;8100;50.994;4.538;2022-08-19T05:11:09;16.20;99.90
15991;DHT22;8100;50.994;4.538;2022-08-19T05:13:57;16.20;99.90
15991;DHT22;8100;50.994;4.538;2022-08-19T05:16:27;16.20;99.90
15991;DHT22;8100;50.994;4.538;2022-08-19T05:19:13;16.20;99.90
15991;DHT22;8100;50.994;4.538;2022-08-19T05:22:18;16.30;99.90
15991;DHT22;8100;50.994;4.538;2022-08-19T05:25:21;16.30;99.90
15991;DHT22;8100;50.994;4.538;2022-08-19T05:28:09;16.40;99.90
15991;DHT22;8100;50.994;4.538;2022-08-19T05:30:38;16.40;99.90
15991;DHT22;8100;50.994;4.538;2022-08-19T05:33:26;16.50;99.90
15991;DHT22;8100;50.994;4.538;2022-08-19T05:36:13;16.50;99.90
15991;DHT22;8100;50.994;4.538;2022-08-19T05:38:58;16.50;99.90
15991;DHT22;8100;50.994;4.538;2022-08-19T05:41:48;16.70;99.90
15991;DHT22;8100;50.994;4.538;2022-08-19T05:44:36;16.70;99.90
15991;DHT22;8100;50.994;4.538;2022-08-19T05:47:24;16.80;99.90
15991;DHT22;8100;50.994;4.538;2022-08-19T05:50:11;17.00;99.90
15991;DHT22;8100;50.994;4.538;2022-08-19T05:52:57;17.10;99.90
15991;DHT22;8100;50.994;4.538;2022-08-19T05:55:44;17.20;99.90
15991;DHT22;8100;50.994;4.538;2022-08-19T05:58:31;17.30;99.90
15991;DHT22;8100;50.994;4.538;2022-08-19T06:01:18;17.40;99.90
15991;DHT22;8100;50.994;4.538;2022-08-19T06:04:05;17.50;99.90
15991;DHT22;8100;50.994;4.538;2022-08-19T06:06:55;17.60;99.90
15991;DHT22;8100;50.994;4.538;2022-08-19T06:09:42;17.60;99.90
15991;DHT22;8100;50.994;4.538;2022-08-19T06:12:28;17.70;99.90
15991;DHT22;8100;50.994;4.538;2022-08-19T06:15:13;17.90;99.90
15991;DHT22;8100;50.994;4.538;2022-08-19T06:17:59;17.90;99.90
15991;DHT22;8100;50.994;4.538;2022-08-19T06:20:46;17.90;99.90
15991;DHT22;8100;50.994;4.538;2022-08-19T06:23:36;17.90;99.90
15991;DHT22;8100;50.994;4.538;2022-08-19T06:26:06;17.90;99.90
15991;DHT22;8100;50.994;4.538;2022-08-19T06:28:52;18.10;99.90
15991;DHT22;8100;50.994;4.538;2022-08-19T06:31:42;18.10;99.90
15991;DHT22;8100;50.994;4.538;2022-08-19T06:34:32;18.20;99.90
15991;DHT22;8100;50.994;4.538;2022-08-19T06:37:19;18.30;99.90
15991;DHT22;8100;50.994;4.538;2022-08-19T06:40:00;18.30;99.90
15991;DHT22;8100;50.994;4.538;2022-08-19T06:42:48;18.30;99.90
15991;DHT22;8100;50.994;4.538;2022-08-19T06:45:36;18.40;99.90
15991;DHT22;8100;50.994;4.538;2022-08-19T06:48:24;18.40;99.90
15991;DHT22;8100;50.994;4.538;2022-08-19T06:51:11;18.50;99.90
15991;DHT22;8100;50.994;4.538;2022-08-19T06:54:01;18.50;99.90
15991;DHT22;8100;50.994;4.538;2022-08-19T06:56:49;18.50;99.90
15991;DHT22;8100;50.994;4.538;2022-08-19T06:59:34;18.50;99.90
15991;DHT22;8100;50.994;4.538;2022-08-19T07:02:08;18.60;99.90
15991;DHT22;8100;50.994;4.538;2022-08-19T07:04:54;18.70;99.90
15991;DHT22;8100;50.994;4.538;2022-08-19T07:07:43;18.70;99.90
15991;DHT22;8100;50.994;4.538;2022-08-19T07:10:28;18.80;99.90
15991;DHT22;8100;50.994;4.538;2022-08-19T07:13:04;19.00;99.90
15991;DHT22;8100;50.994;4.538;2022-08-19T07:15:52;19.00;99.90
15991;DHT22;8100;50.994;4.538;2022-08-19T07:18:39;19.10;99.90
15991;DHT22;8100;50.994;4.538;2022-08-19T07:21:27;19.10;99.90
15991;DHT22;8100;50.994;4.538;2022-08-19T07:24:15;19.10;99.90
15991;DHT22;8100;50.994;4.538;2022-08-19T07:26:58;19.20;99.90
15991;DHT22;8100;50.994;4.538;2022-08-19T07:29:48;19.00;99.90
15991;DHT22;8100;50.994;4.538;2022-08-19T07:32:35;18.90;99.90
15991;DHT22;8100;50.994;4.538;2022-08-19T07:35:21;18.80;99.90
15991;DHT22;8100;50.994;4.538;2022-08-19T07:38:07;19.00;99.90
15991;DHT22;8100;50.994;4.538;2022-08-19T07:40:53;19.30;99.90
15991;DHT22;8100;50.994;4.538;2022-08-19T07:43:40;19.80;99.90
15991;DHT22;8100;50.994;4.538;2022-08-19T07:46:11;20.10;99.90
15991;DHT22;8100;50.994;4.538;2022-08-19T07:48:57;20.00;99.90
15991;DHT22;8100;50.994;4.538;2022-08-19T07:51:45;19.90;99.90
15991;DHT22;8100;50.994;4.538;2022-08-19T07:54:35;19.90;99.90
15991;DHT22;8100;50.994;4.538;2022-08-19T07:57:21;20.00;99.90
15991;DHT22;8100;50.994;4.538;2022-08-19T08:00:07;20.00;99.90
15991;DHT22;8100;50.994;4.538;2022-08-19T08:02:50;20.10;99.90
15991;DHT22;8100;50.994;4.538;2022-08-19T08:05:35;20.00;99.90
15991;DHT22;8100;50.994;4.538;2022-08-19T08:08:40;20.20;99.90
15991;DHT22;8100;50.994;4.538;2022-08-19T08:11:46;20.20;99.90
15991;DHT22;8100;50.994;4.538;2022-08-19T08:14:38;20.10;99.90
15991;DHT22;8100;50.994;4.538;2022-08-19T08:17:27;20.10;99.90
15991;DHT22;8100;50.994;4.538;2022-08-19T08:20:16;20.20;99.90
15991;DHT22;8100;50.994;4.538;2022-08-19T08:23:02;20.40;99.90
15991;DHT22;8100;50.994;4.538;2022-08-19T08:26:07;20.60;99.90
15991;DHT22;8100;50.994;4.538;2022-08-19T08:28:53;20.70;99.90
15991;DHT22;8100;50.994;4.538;2022-08-19T08:31:42;21.00;99.90
15991;DHT22;8100;50.994;4.538;2022-08-19T08:34:29;21.40;99.90
15991;DHT22;8100;50.994;4.538;2022-08-19T08:37:18;21.40;99.90
15991;DHT22;8100;50.994;4.538;2022-08-19T08:40:05;21.10;99.90
15991;DHT22;8100;50.994;4.538;2022-08-19T08:42:57;20.90;99.90
15991;DHT22;8100;50.994;4.538;2022-08-19T08:45:48;21.00;99.90
15991;DHT22;8100;50.994;4.538;2022-08-19T08:48:39;20.90;99.90
15991;DHT22;8100;50.994;4.538;2022-08-19T08:51:31;20.90;99.90
15991;DHT22;8100;50.994;4.538;2022-08-19T08:54:24;20.70;99.90
15991;DHT22;8100;50.994;4.538;2022-08-19T08:56:55;20.70;99.90
15991;DHT22;8100;50.994;4.538;2022-08-19T08:59:46;20.90;99.90
15991;DHT22;8100;50.994;4.538;2022-08-19T09:02:30;21.00;99.90
15991;DHT22;8100;50.994;4.538;2022-08-19T09:05:18;21.30;99.90
15991;DHT22;8100;50.994;4.538;2022-08-19T09:08:10;21.40;99.90
15991;DHT22;8100;50.994;4.538;2022-08-19T09:11:03;21.20;99.90
15991;DHT22;8100;50.994;4.538;2022-08-19T09:13:58;21.30;99.90
15991;DHT22;8100;50.994;4.538;2022-08-19T09:16:46;21.60;99.90
15991;DHT22;8100;50.994;4.538;2022-08-19T09:19:33;21.80;99.90
15991;DHT22;8100;50.994;4.538;2022-08-19T09:22:21;21.90;99.90
15991;DHT22;8100;50.994;4.538;2022-08-19T09:25:09;21.90;99.90
15991;DHT22;8100;50.994;4.538;2022-08-19T09:27:57;21.80;99.90
15991;DHT22;8100;50.994;4.538;2022-08-19T09:30:46;21.70;99.90
15991;DHT22;8100;50.994;4.538;2022-08-19T09:33:35;21.50;99.90
15991;DHT22;8100;50.994;4.538;2022-08-19T09:36:21;21.70;99.90
15991;DHT22;8100;50.994;4.538;2022-08-19T09:39:08;21.60;99.90
15991;DHT22;8100;50.994;4.538;2022-08-19T09:41:54;21.50;99.90
15991;DHT22;8100;50.994;4.538;2022-08-19T09:44:31;21.60;99.90
15991;DHT22;8100;50.994;4.538;2022-08-19T09:47:17;22.10;99.90
15991;DHT22;8100;50.994;4.538;2022-08-19T09:50:06;22.40;99.90
15991;DHT22;8100;50.994;4.538;2022-08-19T09:52:52;22.40;99.90
15991;DHT22;8100;50.994;4.538;2022-08-19T09:55:41;22.30;99.90
15991;DHT22;8100;50.994;4.538;2022-08-19T09:58:27;21.90;99.90
15991;DHT22;8100;50.994;4.538;2022-08-19T10:01:20;21.90;99.90
15991;DHT22;8100;50.994;4.538;2022-08-19T10:04:06;22.00;99.90
15991;DHT22;8100;50.994;4.538;2022-08-19T10:06:55;22.30;99.90
15991;DHT22;8100;50.994;4.538;2022-08-19T10:09:42;22.40;99.90
15991;DHT22;8100;50.994;4.538;2022-08-19T10:12:28;22.70;99.90
15991;DHT22;8100;50.994;4.538;2022-08-19T10:15:15;22.70;99.90
15991;DHT22;8100;50.994;4.538;2022-08-19T10:18:06;22.90;99.90
15991;DHT22;8100;50.994;4.538;2022-08-19T10:21:04;22.90;99.90
15991;DHT22;8100;50.994;4.538;2022-08-19T10:23:42;23.00;99.90
15991;DHT22;8100;50.994;4.538;2022-08-19T10:26:33;23.10;99.90
15991;DHT22;8100;50.994;4.538;2022-08-19T10:29:20;22.90;99.90
15991;DHT22;8100;50.994;4.538;2022-08-19T10:31:47;22.90;99.90
15991;DHT22;8100;50.994;4.538;2022-08-19T10:34:28;23.20;99.90
15991;DHT22;8100;50.994;4.538;2022-08-19T10:37:14;23.50;99.90
15991;DHT22;8100;50.994;4.538;2022-08-19T10:39:50;23.80;99.90
15991;DHT22;8100;50.994;4.538;2022-08-19T10:42:37;24.00;99.90
15991;DHT22;8100;50.994;4.538;2022-08-19T10:45:06;24.20;99.90
15991;DHT22;8100;50.994;4.538;2022-08-19T10:47:53;24.00;99.90
15991;DHT22;8100;50.994;4.538;2022-08-19T10:50:40;23.70;99.90
15991;DHT22;8100;50.994;4.538;2022-08-19T10:53:43;23.90;99.90
15991;DHT22;8100;50.994;4.538;2022-08-19T10:56:32;24.20;99.90
15991;DHT22;8100;50.994;4.538;2022-08-19T10:59:35;24.50;99.90
15991;DHT22;8100;50.994;4.538;2022-08-19T11:02:22;24.80;99.90
15991;DHT22;8100;50.994;4.538;2022-08-19T11:04:49;24.30;99.90
15991;DHT22;8100;50.994;4.538;2022-08-19T11:07:39;24.30;99.90
15991;DHT22;8100;50.994;4.538;2022-08-19T11:10:09;23.90;99.90
15991;DHT22;8100;50.994;4.538;2022-08-19T11:12:55;23.70;99.90
15991;DHT22;8100;50.994;4.538;2022-08-19T11:15:42;23.50;99.90
15991;DHT22;8100;50.994;4.538;2022-08-19T11:18:26;23.50;99.90
15991;DHT22;8100;50.994;4.538;2022-08-19T11:21:15;23.80;99.90
15991;DHT22;8100;50.994;4.538;2022-08-19T11:24:08;23.80;99.90
15991;DHT22;8100;50.994;4.538;2022-08-19T11:27:00;23.80;99.90
15991;DHT22;8100;50.994;4.538;2022-08-19T11:29:48;23.80;99.90
15991;DHT22;8100;50.994;4.538;2022-08-19T11:32:15;23.70;99.90
15991;DHT22;8100;50.994;4.538;2022-08-19T11:35:02;23.40;99.90
15991;DHT22;8100;50.994;4.538;2022-08-19T11:37:48;23.20;99.90
15991;DHT22;8100;50.994;4.538;2022-08-19T11:40:37;23.10;99.90
15991;DHT22;8100;50.994;4.538;2022-08-19T11:43:06;23.10;99.90
15991;DHT22;8100;50.994;4.538;2022-08-19T11:45:52;23.10;99.90
15991;DHT22;8100;50.994;4.538;2022-08-19T11:48:38;22.80;99.90
15991;DHT22;8100;50.994;4.538;2022-08-19T11:51:25;22.80;99.90
15991;DHT22;8100;50.994;4.538;2022-08-19T11:54:11;23.00;99.90
15991;DHT22;8100;50.994;4.538;2022-08-19T11:56:59;23.20;99.90
15991;DHT22;8100;50.994;4.538;2022-08-19T11:59:51;23.50;99.90
15991;DHT22;8100;50.994;4.538;2022-08-19T12:02:36;23.80;99.90
15991;DHT22;8100;50.994;4.538;2022-08-19T12:05:22;24.30;99.90
15991;DHT22;8100;50.994;4.538;2022-08-19T12:08:08;24.60;99.90
15991;DHT22;8100;50.994;4.538;2022-08-19T12:10:58;24.50;99.90
15991;DHT22;8100;50.994;4.538;2022-08-19T12:13:46;24.50;99.90
15991;DHT22;8100;50.994;4.538;2022-08-19T12:16:34;25.10;99.90
15991;DHT22;8100;50.994;4.538;2022-08-19T12:19:03;24.90;99.90
15991;DHT22;8100;50.994;4.538;2022-08-19T12:21:32;24.90;99.90
15991;DHT22;8100;50.994;4.538;2022-08-19T12:24:18;25.00;99.90
15991;DHT22;8100;50.994;4.538;2022-08-19T12:27:00;25.10;99.90
15991;DHT22;8100;50.994;4.538;2022-08-19T12:29:48;25.10;99.90
15991;DHT22;8100;50.994;4.538;2022-08-19T12:32:15;25.30;99.90
15991;DHT22;8100;50.994;4.538;2022-08-19T12:35:01;25.30;99.90
15991;DHT22;8100;50.994;4.538;2022-08-19T12:37:48;25.30;99.90
15991;DHT22;8100;50.994;4.538;2022-08-19T12:40:33;25.20;99.90
15991;DHT22;8100;50.994;4.538;2022-08-19T12:43:16;24.70;99.90
15991;DHT22;8100;50.994;4.538;2022-08-19T12:45:44;24.60;99.90
15991;DHT22;8100;50.994;4.538;2022-08-19T12:48:30;24.60;99.90
15991;DHT22;8100;50.994;4.538;2022-08-19T12:51:17;25.00;99.90
15991;DHT22;8100;50.994;4.538;2022-08-19T12:54:05;24.90;99.90
15991;DHT22;8100;50.994;4.538;2022-08-19T12:56:51;25.80;99.90
15991;DHT22;8100;50.994;4.538;2022-08-19T12:59:38;25.70;99.90
15991;DHT22;8100;50.994;4.538;2022-08-19T13:02:25;25.70;99.90
15991;DHT22;8100;50.994;4.538;2022-08-19T13:05:14;25.60;99.90
15991;DHT22;8100;50.994;4.538;2022-08-19T13:08:00;25.60;99.90
15991;DHT22;8100;50.994;4.538;2022-08-19T13:10:48;25.60;99.90
15991;DHT22;8100;50.994;4.538;2022-08-19T13:13:33;26.10;99.90
15991;DHT22;8100;50.994;4.538;2022-08-19T13:16:19;26.10;99.90
15991;DHT22;8100;50.994;4.538;2022-08-19T13:19:07;26.50;99.90
15991;DHT22;8100;50.994;4.538;2022-08-19T13:21:53;26.80;99.90
15991;DHT22;8100;50.994;4.538;2022-08-19T13:24:39;26.40;99.90
15991;DHT22;8100;50.994;4.538;2022-08-19T13:27:25;26.10;99.90
15991;DHT22;8100;50.994;4.538;2022-08-19T13:30:13;26.10;99.90
15991;DHT22;8100;50.994;4.538;2022-08-19T13:33:17;26.40;99.90
15991;DHT22;8100;50.994;4.538;2022-08-19T13:36:07;26.50;99.90
15991;DHT22;8100;50.994;4.538;2022-08-19T13:38:52;26.30;99.90
15991;DHT22;8100;50.994;4.538;2022-08-19T13:41:44;26.70;99.90
15991;DHT22;8100;50.994;4.538;2022-08-19T13:44:32;26.40;99.90
15991;DHT22;8100;50.994;4.538;2022-08-19T13:47:17;26.20;99.90
15991;DHT22;8100;50.994;4.538;2022-08-19T13:50:04;25.80;99.90
15991;DHT22;8100;50.994;4.538;2022-08-19T13:52:51;25.90;99.90
15991;DHT22;8100;50.994;4.538;2022-08-19T13:55:38;26.00;99.90
15991;DHT22;8100;50.994;4.538;2022-08-19T13:58:25;26.50;99.90
15991;DHT22;8100;50.994;4.538;2022-08-19T14:01:11;26.60;99.90
15991;DHT22;8100;50.994;4.538;2022-08-19T14:03:58;27.00;99.90
15991;DHT22;8100;50.994;4.538;2022-08-19T14:06:43;29.30;99.90
15991;DHT22;8100;50.994;4.538;2022-08-19T14:09:32;30.80;99.90
15991;DHT22;8100;50.994;4.538;2022-08-19T14:12:19;31.70;99.90
15991;DHT22;8100;50.994;4.538;2022-08-19T14:15:09;31.50;99.90
15991;DHT22;8100;50.994;4.538;2022-08-19T14:17:39;30.90;99.90
15991;DHT22;8100;50.994;4.538;2022-08-19T14:20:26;30.60;99.90
15991;DHT22;8100;50.994;4.538;2022-08-19T14:23:13;30.10;99.90
15991;DHT22;8100;50.994;4.538;2022-08-19T14:25:42;30.60;99.90
15991;DHT22;8100;50.994;4.538;2022-08-19T14:28:30;30.30;99.90
15991;DHT22;8100;50.994;4.538;2022-08-19T14:30:57;29.10;99.90
15991;DHT22;8100;50.994;4.538;2022-08-19T14:33:42;28.00;99.90
15991;DHT22;8100;50.994;4.538;2022-08-19T14:36:27;29.00;99.90
15991;DHT22;8100;50.994;4.538;2022-08-19T14:39:15;29.10;99.90
15991;DHT22;8100;50.994;4.538;2022-08-19T14:42:06;27.40;99.90
15991;DHT22;8100;50.994;4.538;2022-08-19T14:44:57;26.60;99.90
15991;DHT22;8100;50.994;4.538;2022-08-19T14:47:43;25.80;99.90
15991;DHT22;8100;50.994;4.538;2022-08-19T14:50:30;25.80;99.90
15991;DHT22;8100;50.994;4.538;2022-08-19T14:53:16;25.70;99.90
15991;DHT22;8100;50.994;4.538;2022-08-19T14:56:06;25.20;99.90
15991;DHT22;8100;50.994;4.538;2022-08-19T14:58:56;24.90;99.90
15991;DHT22;8100;50.994;4.538;2022-08-19T15:01:45;24.50;99.90
15991;DHT22;8100;50.994;4.538;2022-08-19T15:04:32;24.20;99.90
15991;DHT22;8100;50.994;4.538;2022-08-19T15:07:05;23.90;99.90
15991;DHT22;8100;50.994;4.538;2022-08-19T15:09:52;23.40;99.90
15991;DHT22;8100;50.994;4.538;2022-08-19T15:12:28;22.70;99.90
15991;DHT22;8100;50.994;4.538;2022-08-19T15:15:17;23.50;99.90
15991;DHT22;8100;50.994;4.538;2022-08-19T15:18:04;25.40;99.90
15991;DHT22;8100;50.994;4.538;2022-08-19T15:20:51;26.10;99.90
15991;DHT22;8100;50.994;4.538;2022-08-19T15:23:36;25.80;99.90
15991;DHT22;8100;50.994;4.538;2022-08-19T15:26:22;25.50;99.90
15991;DHT22;8100;50.994;4.538;2022-08-19T15:29:09;26.20;99.90
15991;DHT22;8100;50.994;4.538;2022-08-19T15:31:59;25.70;99.90
15991;DHT22;8100;50.994;4.538;2022-08-19T15:34:45;25.10;99.90
15991;DHT22;8100;50.994;4.538;2022-08-19T15:37:33;25.10;99.90
15991;DHT22;8100;50.994;4.538;2022-08-19T15:40:20;26.30;99.90
15991;DHT22;8100;50.994;4.538;2022-08-19T15:43:08;26.50;99.90
15991;DHT22;8100;50.994;4.538;2022-08-19T15:45:56;25.80;99.90
15991;DHT22;8100;50.994;4.538;2022-08-19T15:48:43;24.90;99.90
15991;DHT22;8100;50.994;4.538;2022-08-19T15:51:13;24.50;99.90
15991;DHT22;8100;50.994;4.538;2022-08-19T15:53:59;24.30;99.90
15991;DHT22;8100;50.994;4.538;2022-08-19T15:56:47;24.40;99.90
15991;DHT22;8100;50.994;4.538;2022-08-19T16:00:01;24.50;99.90
15991;DHT22;8100;50.994;4.538;2022-08-19T16:03:04;24.50;99.90
15991;DHT22;8100;50.994;4.538;2022-08-19T16:06:09;24.50;99.90
15991;DHT22;8100;50.994;4.538;2022-08-19T16:09:14;24.40;99.90
15991;DHT22;8100;50.994;4.538;2022-08-19T16:12:03;24.30;99.90
15991;DHT22;8100;50.994;4.538;2022-08-19T16:14:33;24.50;99.90
15991;DHT22;8100;50.994;4.538;2022-08-19T16:17:02;24.80;99.90
15991;DHT22;8100;50.994;4.538;2022-08-19T16:19:50;25.80;99.90
15991;DHT22;8100;50.994;4.538;2022-08-19T16:22:18;26.00;99.90
15991;DHT22;8100;50.994;4.538;2022-08-19T16:25:08;26.10;99.90
15991;DHT22;8100;50.994;4.538;2022-08-19T16:27:35;27.70;99.90
15991;DHT22;8100;50.994;4.538;2022-08-19T16:30:03;29.20;99.90
15991;DHT22;8100;50.994;4.538;2022-08-19T16:32:48;28.70;99.90
15991;DHT22;8100;50.994;4.538;2022-08-19T16:35:34;26.90;99.90
15991;DHT22;8100;50.994;4.538;2022-08-19T16:38:23;26.30;99.90
15991;DHT22;8100;50.994;4.538;2022-08-19T16:41:09;26.00;99.90
15991;DHT22;8100;50.994;4.538;2022-08-19T16:43:56;25.80;99.90
15991;DHT22;8100;50.994;4.538;2022-08-19T16:46:46;25.40;99.90
15991;DHT22;8100;50.994;4.538;2022-08-19T16:49:32;25.00;99.90
15991;DHT22;8100;50.994;4.538;2022-08-19T16:52:20;24.90;99.90
15991;DHT22;8100;50.994;4.538;2022-08-19T16:55:10;24.70;99.90
15991;DHT22;8100;50.994;4.538;2022-08-19T16:57:57;24.50;99.90
15991;DHT22;8100;50.994;4.538;2022-08-19T17:00:35;24.40;99.90
15991;DHT22;8100;50.994;4.538;2022-08-19T17:03:21;24.40;99.90
15991;DHT22;8100;50.994;4.538;2022-08-19T17:06:10;24.40;99.90
15991;DHT22;8100;50.994;4.538;2022-08-19T17:08:59;24.40;99.90
15991;DHT22;8100;50.994;4.538;2022-08-19T17:11:48;24.30;99.90
15991;DHT22;8100;50.994;4.538;2022-08-19T17:14:34;24.20;99.90
15991;DHT22;8100;50.994;4.538;2022-08-19T17:17:21;24.20;99.90
15991;DHT22;8100;50.994;4.538;2022-08-19T17:20:07;23.90;99.90
15991;DHT22;8100;50.994;4.538;2022-08-19T17:22:55;23.90;99.90
15991;DHT22;8100;50.994;4.538;2022-08-19T17:25:41;23.70;99.90
15991;DHT22;8100;50.994;4.538;2022-08-19T17:28:30;23.70;99.90
15991;DHT22;8100;50.994;4.538;2022-08-19T17:31:17;23.60;99.90
15991;DHT22;8100;50.994;4.538;2022-08-19T17:34:06;23.60;99.90
15991;DHT22;8100;50.994;4.538;2022-08-19T17:36:51;23.50;99.90
15991;DHT22;8100;50.994;4.538;2022-08-19T17:39:41;23.60;99.90
15991;DHT22;8100;50.994;4.538;2022-08-19T17:42:26;23.50;99.90
15991;DHT22;8100;50.994;4.538;2022-08-19T17:45:15;23.50;99.90
15991;DHT22;8100;50.994;4.538;2022-08-19T17:48:01;23.60;99.90